Time;durP1;ratioP1;P1;durP2;ratioP2;P2;SDS_P1;SDS_P2;PMS_P1;PMS_P2;Temp;Humidity;BMP_temperature;BMP_pressure;BME280_temperature;BME280_humidity;BME280_pressure;Samples;Min_cycle;Max_cycle;Signal;HPM_P1;HPM_P2
2021/11/25 00:01:24;;;;;;;;;;;;;;;1.01;79.83;96006.97;5095703;28;19950;-78
2021/11/25 00:03:50;;;;;;;;;;;;;;;0.99;80.14;96006.34;5095880;28;19961;-77
2021/11/25 00:06:16;;;;;;;;;;;;;;;1.00;80.02;96007.13;5094593;28;20295;-77
2021/11/25 00:08:42;;;;;;;;;;;;;;;0.99;79.86;95996.00;5094020;28;20464;-77
2021/11/25 00:11:08;;;;;;;;;;;;;;;1.03;79.98;95996.50;5095426;28;19952;-77
2021/11/25 00:13:34;;;;;;;;;;;;;;;1.05;79.88;95993.72;5095439;28;19952;-78
2021/11/25 00:16:01;;;;;;;;;;;;;;;1.02;79.76;95994.88;5095216;28;20372;-76
2021/11/25 00:18:27;;;;;;;;;;;;;;;1.02;79.99;95987.13;5095500;28;19965;-77
2021/11/25 00:20:53;;;;;;;;;;;;;;;0.97;79.67;95979.09;5095343;28;20397;-76
2021/11/25 00:23:19;;;;;;;;;;;;;;;0.99;80.06;95983.09;5095337;28;19965;-77
2021/11/25 00:25:45;;;;;;;;;;;;;;;1.01;80.01;95985.53;5095165;28;20007;-78
2021/11/25 00:28:11;;;;;;;;;;;;;;;1.06;80.02;95992.75;5094552;28;19961;-78
2021/11/25 00:30:37;;;;;;;;;;;;;;;1.05;79.68;95994.53;5095071;28;20049;-78
2021/11/25 00:33:03;;;;;;;;;;;;;;;1.04;79.86;95985.16;5094930;28;19966;-78
2021/11/25 00:35:29;;;;;;;;;;;;;;;1.05;79.66;95980.81;5095117;28;19962;-77
2021/11/25 00:37:55;;;;;;;;;;;;;;;1.02;79.90;95971.63;5094862;28;19958;-77
2021/11/25 00:40:20;;;;;;;;;;;;;;;1.03;80.00;95973.25;5094950;28;20345;-77
2021/11/25 00:42:47;;;;;;;;;;;;;;;0.99;79.87;95972.78;5094850;28;20419;-77
2021/11/25 00:45:14;;;;;;;;;;;;;;;0.97;79.74;95973.94;5094679;28;19960;-77
2021/11/25 00:47:40;;;;;;;;;;;;;;;0.97;79.84;95966.19;5093949;28;20437;-79
2021/11/25 00:50:07;;;;;;;;;;;;;;;0.98;79.66;95967.78;5094710;28;19959;-77
2021/11/25 00:52:33;;;;;;;;;;;;;;;0.91;79.93;95964.28;5094726;28;19967;-77
2021/11/25 00:54:59;;;;;;;;;;;;;;;0.88;80.14;95967.97;5094582;28;20342;-77
2021/11/25 00:57:25;;;;;;;;;;;;;;;0.89;80.42;95974.75;5094557;28;19961;-77
2021/11/25 00:59:54;;;;;;;;;;;;;;;0.88;80.28;95970.56;5093107;28;20037;-77
2021/11/25 01:02:20;;;;;;;;;;;;;;;0.88;80.10;95967.97;5094336;28;19970;-77
2021/11/25 01:04:46;;;;;;;;;;;;;;;0.86;79.93;95969.94;5094412;28;19978;-78
2021/11/25 01:07:12;;;;;;;;;;;;;;;0.83;80.01;95970.28;5094355;28;20430;-77
2021/11/25 01:09:38;;;;;;;;;;;;;;;0.80;80.17;95965.47;5094178;28;19956;-78
2021/11/25 01:12:05;;;;;;;;;;;;;;;0.81;80.32;95970.44;5094736;28;19954;-77
2021/11/25 01:14:32;;;;;;;;;;;;;;;0.83;80.34;95962.53;5094324;28;20312;-77
2021/11/25 01:16:58;;;;;;;;;;;;;;;0.84;80.24;95953.81;5094436;28;19955;-77
2021/11/25 01:19:24;;;;;;;;;;;;;;;0.87;80.42;95952.69;5094269;28;20305;-77
2021/11/25 01:21:50;;;;;;;;;;;;;;;0.86;80.09;95953.63;5094162;28;20405;-75
2021/11/25 01:24:16;;;;;;;;;;;;;;;0.82;80.27;95953.19;5093037;28;19976;-77
2021/11/25 01:26:42;;;;;;;;;;;;;;;0.82;80.47;95955.78;5094003;28;19959;-77
2021/11/25 01:29:08;;;;;;;;;;;;;;;0.80;80.58;95949.97;5093949;28;19957;-77
2021/11/25 01:31:34;;;;;;;;;;;;;;;0.79;80.87;95938.03;5094070;28;19959;-76
2021/11/25 01:34:00;;;;;;;;;;;;;;;0.77;81.04;95943.34;5093949;28;19953;-78
2021/11/25 01:36:26;;;;;;;;;;;;;;;0.74;81.13;95935.97;5094037;28;20491;-78
2021/11/25 01:38:52;;;;;;;;;;;;;;;0.75;81.12;95939.34;5094040;28;19954;-77
2021/11/25 01:41:18;;;;;;;;;;;;;;;0.73;81.45;95936.13;5093920;28;20384;-78
2021/11/25 01:43:44;;;;;;;;;;;;;;;0.69;81.68;95932.25;5093544;28;20447;-78
2021/11/25 01:46:18;;;;;;;;;;;;;;;0.66;81.60;95930.84;5093740;28;20002;-78
2021/11/25 01:48:44;;;;;;;;;;;;;;;0.61;81.51;95933.13;5093958;28;19958;-78
2021/11/25 01:51:10;;;;;;;;;;;;;;;0.62;81.51;95923.59;5093745;28;19953;-78
2021/11/25 01:53:36;;;;;;;;;;;;;;;0.61;81.69;95922.81;5093600;28;20088;-78
2021/11/25 01:56:04;;;;;;;;;;;;;;;0.60;81.82;95914.22;5094289;28;20447;-78
2021/11/25 01:58:30;;;;;;;;;;;;;;;0.61;81.96;95917.66;5093626;28;19959;-78
2021/11/25 02:00:57;;;;;;;;;;;;;;;0.62;81.86;95919.25;5093783;28;19958;-78
2021/11/25 02:03:23;;;;;;;;;;;;;;;0.66;81.94;95915.34;5093436;28;19961;-78
2021/11/25 02:05:49;;;;;;;;;;;;;;;0.70;81.51;95919.19;5093718;28;20352;-78
2021/11/25 02:08:15;;;;;;;;;;;;;;;0.75;81.75;95911.75;5093702;28;20049;-78
2021/11/25 02:10:44;;;;;;;;;;;;;;;0.81;81.69;95907.69;5093664;28;19954;-78
2021/11/25 02:13:10;;;;;;;;;;;;;;;0.86;81.51;95908.00;5093386;28;19952;-77
2021/11/25 02:15:37;;;;;;;;;;;;;;;0.81;81.50;95903.31;5093421;28;19958;-77
2021/11/25 02:18:04;;;;;;;;;;;;;;;0.77;81.43;95894.31;5075502;28;19956;-78
2021/11/25 02:20:34;;;;;;;;;;;;;;;0.71;81.72;95900.16;5092862;28;19958;-77
2021/11/25 02:23:01;;;;;;;;;;;;;;;0.61;82.35;95886.69;5093130;28;19974;-77
2021/11/25 02:25:27;;;;;;;;;;;;;;;0.51;82.93;95881.72;5093633;28;19956;-78
2021/11/25 02:27:53;;;;;;;;;;;;;;;0.49;82.62;95883.66;5065727;28;19965;-77
2021/11/25 02:30:19;;;;;;;;;;;;;;;0.56;82.66;95879.44;5093269;28;19962;-77
2021/11/25 02:32:46;;;;;;;;;;;;;;;0.64;82.50;95883.75;5093383;28;19951;-77
2021/11/25 02:35:14;;;;;;;;;;;;;;;0.69;82.90;95885.81;5093180;28;19948;-77
2021/11/25 02:37:40;;;;;;;;;;;;;;;0.65;82.77;95882.78;5093519;28;19982;-78
2021/11/25 02:40:13;;;;;;;;;;;;;;;0.67;82.50;95875.66;5093169;28;19958;-77
2021/11/25 02:42:39;;;;;;;;;;;;;;;0.67;82.37;95877.44;5093317;28;20026;-77
2021/11/25 02:45:05;;;;;;;;;;;;;;;0.67;82.49;95873.06;5092013;28;19963;-77
2021/11/25 02:47:31;;;;;;;;;;;;;;;0.67;82.15;95873.06;5093253;28;19967;-77
2021/11/25 02:49:57;;;;;;;;;;;;;;;0.68;82.37;95869.53;5093087;28;20020;-77
2021/11/25 02:52:25;;;;;;;;;;;;;;;0.68;82.69;95868.75;5095311;28;19963;-77
2021/11/25 02:54:52;;;;;;;;;;;;;;;0.67;82.61;95870.50;5097365;28;19973;-78
2021/11/25 02:57:17;;;;;;;;;;;;;;;0.69;82.49;95873.72;5078696;28;19955;-78
2021/11/25 02:59:43;;;;;;;;;;;;;;;0.69;82.65;95872.91;5096865;28;19999;-77
2021/11/25 03:02:09;;;;;;;;;;;;;;;0.70;82.58;95864.22;5096754;28;19956;-78
2021/11/25 03:04:35;;;;;;;;;;;;;;;0.75;82.62;95860.13;5096772;28;20353;-77
2021/11/25 03:07:01;;;;;;;;;;;;;;;0.75;82.43;95856.75;5096708;28;19962;-77
2021/11/25 03:09:27;;;;;;;;;;;;;;;0.75;82.35;95857.53;5096584;28;20326;-79
2021/11/25 03:11:54;;;;;;;;;;;;;;;0.71;82.51;95852.91;5096662;28;19948;-77
2021/11/25 03:14:20;;;;;;;;;;;;;;;0.69;82.48;95862.59;5096555;28;19954;-77
2021/11/25 03:16:46;;;;;;;;;;;;;;;0.64;82.58;95857.94;5096436;28;20490;-77
2021/11/25 03:19:13;;;;;;;;;;;;;;;0.59;82.98;95855.88;5096464;28;20308;-77
2021/11/25 03:21:39;;;;;;;;;;;;;;;0.60;82.85;95865.22;5096494;28;20322;-77
2021/11/25 03:24:05;;;;;;;;;;;;;;;0.66;83.07;95865.53;5096049;28;20452;-77
2021/11/25 03:26:31;;;;;;;;;;;;;;;0.64;83.06;95854.56;5096415;28;19989;-77
2021/11/25 03:29:00;;;;;;;;;;;;;;;0.65;82.89;95846.66;5096268;28;20323;-77
2021/11/25 03:31:27;;;;;;;;;;;;;;;0.71;82.62;95850.31;5095997;28;19952;-77
2021/11/25 03:33:54;;;;;;;;;;;;;;;0.73;82.59;95838.06;5096710;28;19955;-76
2021/11/25 03:36:20;;;;;;;;;;;;;;;0.74;82.18;95844.84;5096005;28;19955;-77
2021/11/25 03:38:46;;;;;;;;;;;;;;;0.70;82.50;95843.56;5096476;28;19961;-77
2021/11/25 03:41:13;;;;;;;;;;;;;;;0.65;82.47;95846.66;5095943;28;20435;-77
2021/11/25 03:43:39;;;;;;;;;;;;;;;0.63;82.90;95840.88;5077897;28;20349;-77
2021/11/25 03:46:06;;;;;;;;;;;;;;;0.65;82.88;95838.09;5096008;28;19956;-77
2021/11/25 03:48:32;;;;;;;;;;;;;;;0.67;82.90;95836.94;5095782;28;19952;-77
2021/11/25 03:50:59;;;;;;;;;;;;;;;0.67;82.80;95839.53;5095951;28;20412;-77
2021/11/25 03:53:25;;;;;;;;;;;;;;;0.62;83.03;95841.03;5095624;28;20325;-76
2021/11/25 03:55:51;;;;;;;;;;;;;;;0.60;82.97;95852.31;5095134;28;19953;-76
2021/11/25 03:58:18;;;;;;;;;;;;;;;0.60;82.76;95842.00;5095726;28;20430;-78
2021/11/25 04:00:44;;;;;;;;;;;;;;;0.60;82.88;95838.63;5095539;28;19953;-76
2021/11/25 04:03:10;;;;;;;;;;;;;;;0.58;82.90;95843.13;5095649;28;19983;-77
2021/11/25 04:05:36;;;;;;;;;;;;;;;0.56;82.85;95835.56;5095578;28;19961;-76
2021/11/25 04:08:02;;;;;;;;;;;;;;;0.58;83.21;95845.72;5095524;28;19955;-76
2021/11/25 04:10:28;;;;;;;;;;;;;;;0.63;83.06;95838.28;5095521;28;19951;-77
2021/11/25 04:12:54;;;;;;;;;;;;;;;0.64;83.24;95829.56;5095201;28;19955;-77
2021/11/25 04:15:20;;;;;;;;;;;;;;;0.67;83.25;95826.63;5094652;28;19985;-77
2021/11/25 04:17:46;;;;;;;;;;;;;;;0.70;83.06;95825.50;5095267;28;19957;-77
2021/11/25 04:20:12;;;;;;;;;;;;;;;0.72;83.32;95826.13;5070440;28;19954;-77
2021/11/25 04:22:38;;;;;;;;;;;;;;;0.68;83.09;95820.50;5094355;28;20458;-76
2021/11/25 04:25:05;;;;;;;;;;;;;;;0.57;83.47;95813.97;5095233;28;20409;-77
2021/11/25 04:27:31;;;;;;;;;;;;;;;0.52;83.77;95820.59;5095046;28;19951;-77
2021/11/25 04:37:52;;;;;;;;;;;;;;;0.48;84.15;95819.34;5076794;28;19971;-77
2021/11/25 04:40:18;;;;;;;;;;;;;;;0.39;83.66;95814.22;5094979;28;19965;-77
2021/11/25 04:42:44;;;;;;;;;;;;;;;0.34;84.16;95811.34;5094693;28;19964;-77
2021/11/25 04:45:11;;;;;;;;;;;;;;;0.31;84.59;95810.88;5094729;28;20341;-77
2021/11/25 04:47:37;;;;;;;;;;;;;;;0.31;84.90;95813.47;5095134;28;19954;-77
2021/11/25 04:50:04;;;;;;;;;;;;;;;0.27;85.14;95804.44;5094642;28;19949;-77
2021/11/25 04:52:30;;;;;;;;;;;;;;;0.25;84.65;95811.56;5094437;28;19954;-77
2021/11/25 04:54:56;;;;;;;;;;;;;;;0.20;85.22;95809.50;5094921;28;20058;-76
2021/11/25 04:57:21;;;;;;;;;;;;;;;0.11;85.22;95808.72;5094431;28;20040;-76
2021/11/25 04:59:47;;;;;;;;;;;;;;;0.15;84.98;95807.41;5094528;28;19997;-77
2021/11/25 05:02:13;;;;;;;;;;;;;;;0.19;85.77;95800.16;5094376;28;19997;-77
2021/11/25 05:04:41;;;;;;;;;;;;;;;0.17;85.44;95810.63;5093643;28;20271;-77
2021/11/25 05:07:07;;;;;;;;;;;;;;;0.22;85.47;95814.47;5094233;28;20064;-77
2021/11/25 05:09:33;;;;;;;;;;;;;;;0.27;85.25;95812.19;5094157;28;20408;-77
2021/11/25 05:11:59;;;;;;;;;;;;;;;0.32;85.65;95817.66;5094293;28;19962;-77
2021/11/25 05:14:24;;;;;;;;;;;;;;;0.34;85.11;95821.66;5093680;28;19961;-77
2021/11/25 05:16:50;;;;;;;;;;;;;;;0.39;85.14;95821.94;5094174;28;20040;-76
2021/11/25 05:19:17;;;;;;;;;;;;;;;0.37;85.54;95812.78;5094528;28;20011;-76
2021/11/25 05:21:44;;;;;;;;;;;;;;;0.32;85.32;95802.19;5076189;28;19964;-75
2021/11/25 05:24:10;;;;;;;;;;;;;;;0.31;85.34;95803.94;5094550;28;19976;-76
2021/11/25 05:26:36;;;;;;;;;;;;;;;0.32;84.97;95802.19;5094175;28;19969;-77
2021/11/25 05:29:02;;;;;;;;;;;;;;;0.33;84.93;95796.03;5093957;28;19959;-76
2021/11/25 05:31:28;;;;;;;;;;;;;;;0.36;85.14;95793.94;5076479;28;19978;-76
2021/11/25 05:33:54;;;;;;;;;;;;;;;0.42;84.86;95795.03;5093336;28;19962;-77
2021/11/25 05:36:20;;;;;;;;;;;;;;;0.43;84.70;95796.63;5094135;28;20317;-77
2021/11/25 05:38:46;;;;;;;;;;;;;;;0.44;84.57;95805.97;5075763;28;19961;-77
2021/11/25 05:41:12;;;;;;;;;;;;;;;0.45;84.49;95802.44;5093802;28;20403;-77
2021/11/25 05:43:38;;;;;;;;;;;;;;;0.42;84.67;95809.69;5076199;28;20014;-76
2021/11/25 05:46:04;;;;;;;;;;;;;;;0.41;84.35;95806.31;5093830;28;19958;-76
2021/11/25 05:48:29;;;;;;;;;;;;;;;0.38;84.72;95806.66;5075230;28;19961;-77
2021/11/25 05:50:56;;;;;;;;;;;;;;;0.36;84.86;95809.41;5066830;28;19954;-77
2021/11/25 05:53:21;;;;;;;;;;;;;;;0.35;85.04;95812.16;5093723;28;20375;-77
2021/11/25 05:55:47;;;;;;;;;;;;;;;0.27;84.37;95815.56;5093541;28;20347;-76
2021/11/25 05:58:13;;;;;;;;;;;;;;;0.13;85.51;95814.53;5093923;28;19963;-76
2021/11/25 06:00:39;;;;;;;;;;;;;;;0.11;85.64;95815.66;5093554;28;20326;-76
2021/11/25 06:03:05;;;;;;;;;;;;;;;0.16;85.88;95821.09;5093599;28;19974;-76
2021/11/25 06:05:31;;;;;;;;;;;;;;;0.22;85.76;95817.06;5093731;28;19958;-77
2021/11/25 06:07:59;;;;;;;;;;;;;;;0.27;85.45;95813.00;5093707;28;19966;-77
2021/11/25 06:10:25;;;;;;;;;;;;;;;0.33;85.68;95814.88;5093642;28;19961;-76
2021/11/25 06:12:52;;;;;;;;;;;;;;;0.35;85.48;95809.56;5092331;28;19956;-76
2021/11/25 06:15:18;;;;;;;;;;;;;;;0.26;85.43;95816.56;5093541;28;20398;-76
2021/11/25 06:17:44;;;;;;;;;;;;;;;0.22;85.43;95819.66;5092693;28;19967;-77
2021/11/25 06:20:11;;;;;;;;;;;;;;;0.24;85.61;95818.50;5093333;28;19955;-76
2021/11/25 06:22:38;;;;;;;;;;;;;;;0.29;87.89;95820.56;5093180;28;19964;-76
2021/11/25 06:25:05;;;;;;;;;;;;;;;1.04;100.00;95817.34;5093559;28;19967;-76
2021/11/25 06:27:31;;;;;;;;;;;;;;;1.40;100.00;95812.34;5096104;28;19979;-77
2021/11/25 06:29:56;;;;;;;;;;;;;;;1.77;100.00;95807.31;5058757;28;20409;-76
2021/11/25 06:32:22;;;;;;;;;;;;;;;2.05;100.00;95812.63;5079334;28;20039;-76
2021/11/25 06:34:48;;;;;;;;;;;;;;;1.88;84.74;95822.38;5097133;28;19999;-76
2021/11/25 06:37:14;;;;;;;;;;;;;;;1.59;83.66;95820.56;5097934;28;19956;-76
2021/11/25 06:39:40;;;;;;;;;;;;;;;1.37;83.40;95817.88;5079378;28;20003;-76
2021/11/25 06:42:06;;;;;;;;;;;;;;;1.18;83.91;95810.63;5097070;28;19961;-76
2021/11/25 06:44:32;;;;;;;;;;;;;;;1.09;84.09;95809.06;5097114;28;20032;-77
2021/11/25 06:46:58;;;;;;;;;;;;;;;1.03;84.27;95808.00;5097226;28;19959;-76
2021/11/25 06:49:24;;;;;;;;;;;;;;;0.99;84.24;95811.91;5096966;28;19947;-76
2021/11/25 06:51:50;;;;;;;;;;;;;;;0.94;84.48;95812.41;5097258;28;20017;-76
2021/11/25 06:54:16;;;;;;;;;;;;;;;0.90;84.39;95805.97;5096841;28;20071;-76
2021/11/25 06:56:42;;;;;;;;;;;;;;;0.79;84.61;95809.78;5097040;28;19971;-76
2021/11/25 06:59:08;;;;;;;;;;;;;;;0.74;84.92;95819.81;5078560;28;19961;-76
2021/11/25 07:01:34;;;;;;;;;;;;;;;0.73;85.14;95832.88;5097041;28;19957;-76
2021/11/25 07:04:00;;;;;;;;;;;;;;;0.74;84.79;95839.66;5096479;28;20439;-76
2021/11/25 07:06:26;;;;;;;;;;;;;;;0.68;84.49;95842.94;5096592;28;19965;-76
2021/11/25 07:08:52;;;;;;;;;;;;;;;0.63;84.83;95850.38;5096583;28;19955;-76
2021/11/25 07:11:18;;;;;;;;;;;;;;;0.65;85.01;95853.59;5096556;28;20009;-76
2021/11/25 07:13:44;;;;;;;;;;;;;;;0.67;85.02;95849.84;5095766;28;20461;-76
2021/11/25 07:16:10;;;;;;;;;;;;;;;0.65;84.84;95851.81;5096513;28;19986;-76
2021/11/25 07:18:36;;;;;;;;;;;;;;;0.63;85.01;95855.53;5096623;28;20328;-76
2021/11/25 07:21:02;;;;;;;;;;;;;;;0.62;84.95;95859.88;5096576;28;19966;-77
2021/11/25 07:23:28;;;;;;;;;;;;;;;0.60;84.86;95860.06;5096427;28;20023;-76
2021/11/25 07:25:53;;;;;;;;;;;;;;;0.56;84.85;95842.50;5096231;28;19966;-76
2021/11/25 07:28:19;;;;;;;;;;;;;;;0.49;85.03;95849.34;5096511;28;20008;-76
2021/11/25 07:30:46;;;;;;;;;;;;;;;0.43;85.33;95839.69;5096228;28;19960;-76
2021/11/25 07:33:12;;;;;;;;;;;;;;;0.37;85.61;95847.09;5096085;28;19961;-77
2021/11/25 07:35:43;;;;;;;;;;;;;;;0.36;85.66;95840.38;5096799;28;19980;-76
2021/11/25 07:38:10;;;;;;;;;;;;;;;0.30;85.81;95841.03;5095704;28;19963;-76
2021/11/25 07:40:36;;;;;;;;;;;;;;;0.57;100.00;95839.75;5078445;28;20329;-77
2021/11/25 07:43:02;;;;;;;;;;;;;;;1.24;100.00;95837.50;5095833;28;19960;-75
2021/11/25 07:45:28;;;;;;;;;;;;;;;1.37;96.67;95843.72;5095970;28;20015;-76
2021/11/25 07:47:54;;;;;;;;;;;;;;;1.33;87.48;95837.28;5095944;28;19957;-75
2021/11/25 07:50:22;;;;;;;;;;;;;;;1.19;85.67;95838.03;5095906;28;19999;-76
2021/11/25 07:52:49;;;;;;;;;;;;;;;1.46;97.99;95841.84;5095585;28;19979;-76
2021/11/25 07:55:17;;;;;;;;;;;;;;;1.54;91.10;95836.59;5095756;28;19964;-76
2021/11/25 07:57:44;;;;;;;;;;;;;;;1.44;84.17;95835.25;5095872;28;20320;-76
2021/11/25 08:00:10;;;;;;;;;;;;;;;1.22;83.97;95835.13;5094760;28;19964;-76
2021/11/25 08:02:36;;;;;;;;;;;;;;;1.10;84.70;95834.72;5094593;28;19966;-75
2021/11/25 08:05:02;;;;;;;;;;;;;;;1.02;84.73;95832.22;5095869;28;19974;-75
2021/11/25 08:07:28;;;;;;;;;;;;;;;1.00;84.69;95822.03;5077390;28;19953;-76
2021/11/25 08:09:54;;;;;;;;;;;;;;;0.99;84.69;95817.88;5095629;28;20039;-76
2021/11/25 08:12:20;;;;;;;;;;;;;;;0.96;84.63;95825.16;5095383;28;19966;-76
2021/11/25 08:14:46;;;;;;;;;;;;;;;0.94;84.82;95832.25;5095498;28;19959;-76
2021/11/25 08:17:12;;;;;;;;;;;;;;;0.92;84.30;95831.63;5095218;28;19981;-75
2021/11/25 08:19:38;;;;;;;;;;;;;;;0.81;84.40;95843.16;5095698;28;19964;-75
2021/11/25 08:22:04;;;;;;;;;;;;;;;0.66;84.69;95829.41;5095493;28;19999;-76
2021/11/25 08:24:30;;;;;;;;;;;;;;;0.53;85.07;95825.59;5095010;28;19975;-76
2021/11/25 08:26:57;;;;;;;;;;;;;;;0.44;85.11;95821.44;5095072;28;19954;-75
2021/11/25 08:29:22;;;;;;;;;;;;;;;0.45;86.11;95824.84;5095012;28;19947;-76
2021/11/25 08:31:49;;;;;;;;;;;;;;;0.50;86.11;95820.75;5095707;28;19977;-76
2021/11/25 08:34:15;;;;;;;;;;;;;;;0.56;86.00;95817.50;5094312;28;20393;-76
2021/11/25 08:36:41;;;;;;;;;;;;;;;0.59;85.66;95804.28;5095421;28;19958;-76
2021/11/25 08:39:07;;;;;;;;;;;;;;;0.63;85.84;95802.16;5094958;28;20416;-76
2021/11/25 08:41:33;;;;;;;;;;;;;;;0.68;85.39;95801.66;5094961;28;20023;-76
2021/11/25 08:43:59;;;;;;;;;;;;;;;0.66;85.02;95806.97;5094812;28;20009;-75
2021/11/25 08:46:26;;;;;;;;;;;;;;;0.64;85.44;95808.13;5094762;28;19958;-76
2021/11/25 08:48:52;;;;;;;;;;;;;;;0.64;85.51;95815.88;5094663;28;19963;-76
2021/11/25 08:51:18;;;;;;;;;;;;;;;0.50;85.04;95812.22;5094402;28;19948;-75
2021/11/25 08:53:44;;;;;;;;;;;;;;;0.43;85.64;95816.47;5094554;28;20088;-76
2021/11/25 08:56:10;;;;;;;;;;;;;;;0.36;85.99;95814.56;5094741;28;19958;-75
2021/11/25 08:58:37;;;;;;;;;;;;;;;0.34;86.31;95813.13;5093683;28;19958;-76
2021/11/25 09:01:03;;;;;;;;;;;;;;;0.39;86.62;95814.22;5095242;28;19954;-75
2021/11/25 09:03:30;;;;;;;;;;;;;;;0.49;86.38;95813.22;5076129;28;19953;-76
2021/11/25 09:05:57;;;;;;;;;;;;;;;0.56;86.25;95816.72;5094465;28;19962;-75
2021/11/25 09:08:23;;;;;;;;;;;;;;;0.65;86.60;95823.44;5071114;28;19945;-75
2021/11/25 09:10:49;;;;;;;;;;;;;;;0.73;86.19;95817.41;5094438;28;19980;-76
2021/11/25 09:13:15;;;;;;;;;;;;;;;0.78;85.63;95823.66;5094141;28;19953;-75
2021/11/25 09:15:42;;;;;;;;;;;;;;;0.81;85.47;95817.34;5094272;28;20430;-75
2021/11/25 09:18:09;;;;;;;;;;;;;;;0.74;85.01;95816.44;5094263;28;19952;-76
2021/11/25 09:20:37;;;;;;;;;;;;;;;0.69;85.20;95810.97;5094226;28;19963;-76
2021/11/25 09:23:05;;;;;;;;;;;;;;;0.69;85.70;95818.72;5094146;28;19956;-76
2021/11/25 09:25:32;;;;;;;;;;;;;;;1.12;100.00;95821.66;5094102;28;19989;-76
2021/11/25 09:27:59;;;;;;;;;;;;;;;2.12;100.00;95815.31;5094009;28;19957;-76
2021/11/25 09:30:25;;;;;;;;;;;;;;;3.02;100.00;95819.25;5094178;28;19956;-75
2021/11/25 09:32:51;;;;;;;;;;;;;;;3.40;88.56;95816.38;5094044;28;19995;-76
2021/11/25 09:35:18;;;;;;;;;;;;;;;3.35;83.04;95818.72;5094232;28;19969;-76
2021/11/25 09:37:45;;;;;;;;;;;;;;;3.12;80.94;95816.34;5094059;28;19962;-76
2021/11/25 09:40:22;;;;;;;;;;;;;;;2.88;82.50;95817.50;5093977;28;19955;-76
2021/11/25 09:42:48;;;;;;;;;;;;;;;2.87;83.88;95832.25;5093967;28;20444;-76
2021/11/25 09:45:16;;;;;;;;;;;;;;;2.77;81.10;95831.75;5094334;28;19972;-76
2021/11/25 09:47:43;;;;;;;;;;;;;;;2.58;79.77;95830.56;5093673;28;19955;-76
2021/11/25 09:50:09;;;;;;;;;;;;;;;2.33;80.47;95836.09;5093787;28;20328;-75
2021/11/25 09:52:34;;;;;;;;;;;;;;;2.17;80.96;95834.47;5093816;28;19960;-76
2021/11/25 09:55:02;;;;;;;;;;;;;;;2.03;80.78;95832.69;5093438;28;19984;-76
2021/11/25 09:57:28;;;;;;;;;;;;;;;1.91;81.62;95829.78;5075066;28;19974;-75
2021/11/25 09:59:54;;;;;;;;;;;;;;;1.80;81.50;95825.84;5093686;28;20003;-75
2021/11/25 10:02:20;;;;;;;;;;;;;;;1.71;82.20;95832.09;5100157;28;20005;-75
2021/11/25 10:04:46;;;;;;;;;;;;;;;1.67;82.35;95835.19;5100329;28;20487;-76
2021/11/25 10:07:27;;;;;;;;;;;;;;;1.63;82.43;95834.75;5100260;28;19960;-76
2021/11/25 10:09:53;;;;;;;;;;;;;;;1.58;82.45;95832.69;5100516;28;20434;-75
2021/11/25 10:12:32;;;;;;;;;;;;;;;1.57;82.67;95838.81;5100479;28;19959;-76
2021/11/25 10:14:59;;;;;;;;;;;;;;;1.56;82.73;95832.06;5100479;28;20337;-75
2021/11/25 10:17:47;;;;;;;;;;;;;;;1.54;82.88;95828.84;5100250;28;19951;-75
2021/11/25 10:20:15;;;;;;;;;;;;;;;1.46;82.94;95830.72;5078451;28;19947;-75
2021/11/25 10:23:00;;;;;;;;;;;;;;;1.35;83.29;95825.00;5100393;28;19955;-75
2021/11/25 10:25:39;;;;;;;;;;;;;;;1.16;83.15;95825.50;5100348;28;20316;-75
2021/11/25 10:28:07;;;;;;;;;;;;;;;0.97;83.67;95811.28;5100274;28;19952;-78
2021/11/25 10:30:36;;;;;;;;;;;;;;;0.92;84.34;95816.94;5100043;28;20342;-75
2021/11/25 10:33:02;;;;;;;;;;;;;;;0.94;84.59;95817.56;5082306;28;19958;-75
2021/11/25 10:35:31;;;;;;;;;;;;;;;1.00;84.84;95818.66;5100022;28;19955;-75
2021/11/25 10:40:30;;;;;;;;;;;;;;;1.10;84.22;95814.06;5099939;28;19959;-75
2021/11/25 10:42:56;;;;;;;;;;;;;;;1.10;84.01;95808.09;5098643;28;19956;-77
2021/11/25 10:45:23;;;;;;;;;;;;;;;1.07;84.00;95804.09;5100090;28;19965;-75
2021/11/25 10:48:01;;;;;;;;;;;;;;;1.06;84.19;95799.91;5099990;28;19950;-75
2021/11/25 10:50:27;;;;;;;;;;;;;;;1.06;83.73;95802.47;5100017;28;19964;-75
2021/11/25 10:53:00;;;;;;;;;;;;;;;1.03;83.58;95800.25;5099575;28;19963;-76
2021/11/25 10:55:26;;;;;;;;;;;;;;;1.05;83.88;95807.81;5099199;28;20000;-75
2021/11/25 10:57:53;;;;;;;;;;;;;;;1.06;84.11;95806.84;5100105;28;19965;-75
2021/11/25 11:00:25;;;;;;;;;;;;;;;1.10;83.75;95808.09;5099734;28;20409;-75
2021/11/25 11:03:06;;;;;;;;;;;;;;;1.14;83.86;95809.38;5100204;28;19948;-75
2021/11/25 11:05:45;;;;;;;;;;;;;;;1.18;84.13;95808.84;5099673;28;19969;-76
2021/11/25 11:08:11;;;;;;;;;;;;;;;1.20;83.85;95799.13;5077960;28;19956;-75
2021/11/25 11:10:38;;;;;;;;;;;;;;;1.25;83.77;95792.66;5099870;28;19992;-75
2021/11/25 11:15:47;;;;;;;;;;;;;;;1.23;83.84;95787.66;5095989;28;19967;-76
2021/11/25 11:20:44;;;;;;;;;;;;;;;1.31;84.07;95771.28;5096645;28;20002;-75
2021/11/25 11:23:12;;;;;;;;;;;;;;;1.30;83.48;95767.06;5097016;28;19959;-76
2021/11/25 11:25:38;;;;;;;;;;;;;;;1.27;83.81;95764.88;5095963;28;19978;-75
2021/11/25 11:28:05;;;;;;;;;;;;;;;1.21;84.14;95759.41;5096421;28;20019;-76
2021/11/25 11:30:32;;;;;;;;;;;;;;;1.24;84.07;95767.78;5096427;28;19954;-75
2021/11/25 11:32:58;;;;;;;;;;;;;;;1.27;83.66;95760.50;5096110;28;19949;-75
2021/11/25 11:35:24;;;;;;;;;;;;;;;1.29;83.70;95755.16;5096255;28;20468;-75
2021/11/25 11:37:54;;;;;;;;;;;;;;;1.27;83.49;95767.44;5096290;28;19948;-76
2021/11/25 11:40:24;;;;;;;;;;;;;;;1.23;83.50;95761.03;5096134;28;19956;-75
2021/11/25 11:42:54;;;;;;;;;;;;;;;1.20;83.34;95754.44;5095839;28;19942;-76
2021/11/25 11:45:21;;;;;;;;;;;;;;;1.13;82.62;95761.25;5094940;28;19975;-75
2021/11/25 11:47:54;;;;;;;;;;;;;;;1.05;82.91;95754.41;5095840;28;19958;-77
2021/11/25 11:50:31;;;;;;;;;;;;;;;1.03;83.67;95743.47;5095930;28;19949;-75
2021/11/25 11:53:02;;;;;;;;;;;;;;;1.01;82.99;95745.41;5077805;28;20041;-75
2021/11/25 11:55:34;;;;;;;;;;;;;;;1.01;83.09;95748.00;5095946;28;19962;-76
2021/11/25 11:58:00;;;;;;;;;;;;;;;1.05;83.28;95762.16;5095945;28;19951;-75
2021/11/25 12:00:27;;;;;;;;;;;;;;;1.07;82.65;95760.22;5095675;28;20465;-76
2021/11/25 12:02:54;;;;;;;;;;;;;;;1.02;82.63;95760.72;5095791;28;20323;-75
2021/11/25 12:05:38;;;;;;;;;;;;;;;0.95;82.97;95759.03;5095790;28;19961;-75
2021/11/25 12:08:19;;;;;;;;;;;;;;;0.95;83.55;95762.41;5095447;28;20409;-75
2021/11/25 12:11:00;;;;;;;;;;;;;;;0.97;83.42;95752.69;5095658;28;19950;-75
2021/11/25 12:13:28;;;;;;;;;;;;;;;0.99;83.75;95744.78;5095646;28;19961;-77
2021/11/25 12:16:13;;;;;;;;;;;;;;;0.98;83.80;95735.41;5063316;28;19950;-75
2021/11/25 12:18:38;;;;;;;;;;;;;;;1.01;83.63;95733.31;5095397;28;20435;-76
2021/11/25 12:21:04;;;;;;;;;;;;;;;0.98;83.71;95733.63;5094001;28;19948;-75
2021/11/25 12:23:32;;;;;;;;;;;;;;;1.00;83.63;95731.69;5093398;28;19953;-75
2021/11/25 12:25:58;;;;;;;;;;;;;;;1.05;83.39;95730.34;5094888;28;20426;-75
2021/11/25 12:28:28;;;;;;;;;;;;;;;1.08;83.22;95730.81;5095255;28;19961;-75
2021/11/25 12:31:20;;;;;;;;;;;;;;;1.08;82.90;95727.44;5095352;28;19950;-76
2021/11/25 12:33:46;;;;;;;;;;;;;;;1.13;83.24;95727.69;5080086;28;19967;-76
2021/11/25 12:36:31;;;;;;;;;;;;;;;1.13;83.04;95727.69;5070066;28;19949;-75
2021/11/25 12:38:57;;;;;;;;;;;;;;;1.15;83.33;95728.31;5095004;28;19953;-75
2021/11/25 12:41:23;;;;;;;;;;;;;;;1.17;82.77;95731.53;5094848;28;19955;-76
2021/11/25 12:43:49;;;;;;;;;;;;;;;1.18;82.81;95731.38;5093989;28;20017;-75
2021/11/25 12:46:16;;;;;;;;;;;;;;;1.17;82.74;95724.59;5094697;28;20064;-75
2021/11/25 12:48:50;;;;;;;;;;;;;;;1.17;82.93;95723.78;5095173;28;19947;-75
2021/11/25 12:51:17;;;;;;;;;;;;;;;1.12;83.35;95731.28;5094784;28;20030;-75
2021/11/25 12:53:46;;;;;;;;;;;;;;;1.12;83.48;95733.84;5094604;28;20469;-76
2021/11/25 12:56:15;;;;;;;;;;;;;;;1.14;83.51;95726.72;5094955;28;19954;-75
2021/11/25 12:58:49;;;;;;;;;;;;;;;1.19;83.19;95719.25;5076620;28;19965;-75
2021/11/25 13:01:18;;;;;;;;;;;;;;;1.25;83.14;95721.13;5076720;28;19954;-75
2021/11/25 13:03:45;;;;;;;;;;;;;;;1.30;83.22;95718.00;5094557;28;19953;-75
2021/11/25 13:06:11;;;;;;;;;;;;;;;1.32;82.76;95716.84;5093942;28;19978;-75
2021/11/25 13:08:39;;;;;;;;;;;;;;;1.32;82.29;95727.16;5094295;28;19957;-75
2021/11/25 13:11:12;;;;;;;;;;;;;;;1.32;82.06;95722.00;5094383;28;19956;-75
2021/11/25 13:13:38;;;;;;;;;;;;;;;1.30;82.34;95715.41;5094607;28;19952;-75